sensor_id;sensor_type;location;lat;lon;timestamp;P1;durP1;ratioP1;P2;durP2;ratioP2
12072;SDS011;6098;49.004;8.372;2023-01-29T00:10:12;10.04;;;6.32;;
12072;SDS011;6098;49.004;8.372;2023-01-29T00:25:02;10.38;;;6.31;;
12072;SDS011;6098;49.004;8.372;2023-01-29T00:39:51;9.59;;;6.17;;
12072;SDS011;6098;49.004;8.372;2023-01-29T00:54:42;11.23;;;6.29;;
12072;SDS011;6098;49.004;8.372;2023-01-29T01:09:35;10.50;;;6.21;;
12072;SDS011;6098;49.004;8.372;2023-01-29T01:24:38;10.70;;;6.41;;
12072;SDS011;6098;49.004;8.372;2023-01-29T01:39:28;9.04;;;5.97;;
12072;SDS011;6098;49.004;8.372;2023-01-29T01:54:22;11.72;;;5.74;;
12072;SDS011;6098;49.004;8.372;2023-01-29T02:09:17;8.64;;;5.70;;
12072;SDS011;6098;49.004;8.372;2023-01-29T02:39:37;11.40;;;6.41;;
12072;SDS011;6098;49.004;8.372;2023-01-29T02:54:29;10.86;;;6.41;;
12072;SDS011;6098;49.004;8.372;2023-01-29T03:09:19;11.23;;;6.02;;
12072;SDS011;6098;49.004;8.372;2023-01-29T03:24:07;12.76;;;6.84;;
12072;SDS011;6098;49.004;8.372;2023-01-29T03:39:19;10.62;;;6.10;;
12072;SDS011;6098;49.004;8.372;2023-01-29T03:54:14;11.06;;;6.60;;
12072;SDS011;6098;49.004;8.372;2023-01-29T04:09:15;8.90;;;6.03;;
12072;SDS011;6098;49.004;8.372;2023-01-29T04:24:12;9.47;;;5.34;;
12072;SDS011;6098;49.004;8.372;2023-01-29T04:54:17;8.46;;;5.53;;
12072;SDS011;6098;49.004;8.372;2023-01-29T05:09:10;10.31;;;5.27;;
12072;SDS011;6098;49.004;8.372;2023-01-29T05:24:07;12.59;;;5.57;;
12072;SDS011;6098;49.004;8.372;2023-01-29T05:38:58;7.84;;;5.02;;
12072;SDS011;6098;49.004;8.372;2023-01-29T05:53:49;7.43;;;4.79;;
12072;SDS011;6098;49.004;8.372;2023-01-29T06:08:39;8.16;;;5.03;;
12072;SDS011;6098;49.004;8.372;2023-01-29T06:23:29;10.51;;;6.04;;
12072;SDS011;6098;49.004;8.372;2023-01-29T06:38:18;9.73;;;5.69;;
12072;SDS011;6098;49.004;8.372;2023-01-29T06:53:08;10.17;;;5.56;;
12072;SDS011;6098;49.004;8.372;2023-01-29T07:07:58;10.29;;;6.28;;
12072;SDS011;6098;49.004;8.372;2023-01-29T07:22:49;10.97;;;6.52;;
12072;SDS011;6098;49.004;8.372;2023-01-29T07:37:39;10.41;;;6.62;;
12072;SDS011;6098;49.004;8.372;2023-01-29T07:52:29;10.94;;;6.53;;
12072;SDS011;6098;49.004;8.372;2023-01-29T08:07:19;10.41;;;6.56;;
12072;SDS011;6098;49.004;8.372;2023-01-29T08:22:09;10.73;;;6.63;;
12072;SDS011;6098;49.004;8.372;2023-01-29T08:36:58;11.14;;;6.61;;
12072;SDS011;6098;49.004;8.372;2023-01-29T08:51:47;11.00;;;6.69;;
12072;SDS011;6098;49.004;8.372;2023-01-29T09:06:37;10.89;;;6.72;;
12072;SDS011;6098;49.004;8.372;2023-01-29T09:21:27;9.84;;;6.34;;
12072;SDS011;6098;49.004;8.372;2023-01-29T09:36:17;7.04;;;5.00;;
12072;SDS011;6098;49.004;8.372;2023-01-29T09:51:11;8.70;;;5.78;;
12072;SDS011;6098;49.004;8.372;2023-01-29T10:36:12;9.68;;;5.78;;
12072;SDS011;6098;49.004;8.372;2023-01-29T11:36:45;8.59;;;5.30;;
12072;SDS011;6098;49.004;8.372;2023-01-29T11:51:36;7.33;;;4.72;;
12072;SDS011;6098;49.004;8.372;2023-01-29T12:06:31;5.60;;;4.28;;
12072;SDS011;6098;49.004;8.372;2023-01-29T12:21:31;6.47;;;4.68;;
12072;SDS011;6098;49.004;8.372;2023-01-29T12:51:10;4.69;;;3.60;;
12072;SDS011;6098;49.004;8.372;2023-01-29T13:06:01;5.28;;;3.89;;
12072;SDS011;6098;49.004;8.372;2023-01-29T13:20:50;5.31;;;4.29;;
12072;SDS011;6098;49.004;8.372;2023-01-29T13:35:40;5.63;;;4.19;;
12072;SDS011;6098;49.004;8.372;2023-01-29T13:50:36;6.22;;;4.48;;
12072;SDS011;6098;49.004;8.372;2023-01-29T14:20:20;5.13;;;3.97;;
12072;SDS011;6098;49.004;8.372;2023-01-29T15:05:28;9.78;;;5.58;;
12072;SDS011;6098;49.004;8.372;2023-01-29T15:20:24;5.78;;;4.74;;
12072;SDS011;6098;49.004;8.372;2023-01-29T15:35:27;11.59;;;6.69;;
12072;SDS011;6098;49.004;8.372;2023-01-29T15:50:19;7.31;;;4.62;;
12072;SDS011;6098;49.004;8.372;2023-01-29T16:05:13;10.54;;;6.70;;
12072;SDS011;6098;49.004;8.372;2023-01-29T16:20:06;10.97;;;6.50;;
12072;SDS011;6098;49.004;8.372;2023-01-29T16:34:55;10.80;;;6.64;;
12072;SDS011;6098;49.004;8.372;2023-01-29T16:49:45;13.27;;;8.46;;
12072;SDS011;6098;49.004;8.372;2023-01-29T17:04:32;16.99;;;9.86;;
12072;SDS011;6098;49.004;8.372;2023-01-29T17:19:22;15.97;;;10.00;;
12072;SDS011;6098;49.004;8.372;2023-01-29T17:34:12;16.28;;;9.26;;
12072;SDS011;6098;49.004;8.372;2023-01-29T17:49:02;15.34;;;9.57;;
12072;SDS011;6098;49.004;8.372;2023-01-29T18:03:51;20.51;;;10.89;;
12072;SDS011;6098;49.004;8.372;2023-01-29T18:18:41;19.96;;;10.91;;
12072;SDS011;6098;49.004;8.372;2023-01-29T18:33:31;18.50;;;10.88;;
12072;SDS011;6098;49.004;8.372;2023-01-29T18:48:20;19.20;;;11.32;;
12072;SDS011;6098;49.004;8.372;2023-01-29T19:03:09;22.49;;;11.66;;
12072;SDS011;6098;49.004;8.372;2023-01-29T19:18:00;20.61;;;12.94;;
12072;SDS011;6098;49.004;8.372;2023-01-29T19:32:49;24.06;;;13.06;;
12072;SDS011;6098;49.004;8.372;2023-01-29T19:47:39;26.36;;;13.78;;
12072;SDS011;6098;49.004;8.372;2023-01-29T20:02:28;24.01;;;13.33;;
12072;SDS011;6098;49.004;8.372;2023-01-29T20:17:17;21.62;;;12.00;;
12072;SDS011;6098;49.004;8.372;2023-01-29T20:32:07;24.90;;;14.23;;
12072;SDS011;6098;49.004;8.372;2023-01-29T20:46:57;25.91;;;13.98;;
12072;SDS011;6098;49.004;8.372;2023-01-29T21:01:46;27.53;;;13.51;;
12072;SDS011;6098;49.004;8.372;2023-01-29T21:16:36;24.23;;;13.11;;
12072;SDS011;6098;49.004;8.372;2023-01-29T21:31:26;29.40;;;14.51;;
12072;SDS011;6098;49.004;8.372;2023-01-29T21:46:15;24.48;;;13.83;;
12072;SDS011;6098;49.004;8.372;2023-01-29T22:01:08;21.62;;;11.54;;
12072;SDS011;6098;49.004;8.372;2023-01-29T22:15:58;22.07;;;12.23;;
12072;SDS011;6098;49.004;8.372;2023-01-29T22:30:47;22.20;;;11.96;;
12072;SDS011;6098;49.004;8.372;2023-01-29T22:45:37;21.98;;;12.62;;
12072;SDS011;6098;49.004;8.372;2023-01-29T23:00:27;24.24;;;13.36;;
12072;SDS011;6098;49.004;8.372;2023-01-29T23:15:16;27.22;;;14.10;;
12072;SDS011;6098;49.004;8.372;2023-01-29T23:30:07;24.44;;;13.86;;
12072;SDS011;6098;49.004;8.372;2023-01-29T23:44:57;26.63;;;13.98;;
12072;SDS011;6098;49.004;8.372;2023-01-29T23:59:47;24.31;;;12.97;;
